Time;durP1;ratioP1;P1;durP2;ratioP2;P2;SDS_P1;SDS_P2;PMS_P1;PMS_P2;Temp;Humidity;BMP_temperature;BMP_pressure;BME280_temperature;BME280_humidity;BME280_pressure;Samples;Min_cycle;Max_cycle;Signal;HPM_P1;HPM_P2
2022/01/06 04:33:01;;;;;;;133.75;43.00;;;;;;;5.70;90.82;96516.97;5271638;23;20051;-88
2022/01/06 04:35:34;;;;;;;37.92;17.75;;;;;;;5.63;88.96;96505.88;4911091;29;20119;-87
2022/01/06 04:38:00;;;;;;;51.85;20.10;;;;;;;5.59;89.00;96498.19;4928085;29;20039;-87
2022/01/06 04:40:25;;;;;;;42.00;18.63;;;;;;;5.62;89.43;96503.31;4892838;29;20405;-84
2022/01/06 04:42:51;;;;;;;41.72;18.23;;;;;;;5.85;89.02;96535.53;4921060;29;20059;-87
2022/01/06 04:45:17;;;;;;;22.05;10.07;;;;;;;5.67;87.69;96503.88;4916448;29;20079;-89
2022/01/06 04:47:43;;;;;;;24.17;11.75;;;;;;;6.13;85.26;96528.56;4922600;29;20051;-89
2022/01/06 04:50:10;;;;;;;25.80;12.85;;;;;;;6.01;85.29;96498.31;4910183;29;20183;-84
2022/01/06 04:52:36;;;;;;;27.80;12.82;;;;;;;6.12;84.59;96522.38;4894845;29;20048;-85
2022/01/06 04:55:01;;;;;;;38.67;18.15;;;;;;;6.19;84.86;96528.19;4904195;29;20044;-86
2022/01/06 04:57:27;;;;;;;39.03;17.20;;;;;;;6.26;85.88;96534.81;4913043;29;20067;-85
2022/01/06 04:59:53;;;;;;;60.75;25.83;;;;;;;6.30;84.23;96552.28;4907233;29;20546;-86
2022/01/06 05:02:19;;;;;;;66.03;27.80;;;;;;;6.23;85.39;96551.81;4916129;29;20040;-89
2022/01/06 05:04:47;;;;;;;54.38;23.95;;;;;;;6.32;85.57;96566.31;4915862;29;20039;-87
2022/01/06 05:07:13;;;;;;;58.58;27.23;;;;;;;6.11;85.79;96536.63;4913846;29;20055;-90
2022/01/06 05:09:38;;;;;;;66.05;29.20;;;;;;;6.21;87.78;96553.72;4894188;29;20107;-86
2022/01/06 05:12:04;;;;;;;63.78;28.88;;;;;;;6.28;86.55;96567.44;4889835;29;20043;-81
2022/01/06 05:14:30;;;;;;;65.85;28.98;;;;;;;6.11;86.60;96551.69;4895542;29;20095;-89
2022/01/06 05:16:56;;;;;;;83.82;37.85;;;;;;;5.89;87.43;96547.66;4895655;29;20047;-90
2022/01/06 05:19:23;;;;;;;61.70;28.45;;;;;;;5.78;87.80;96534.13;4905028;29;20032;-86
2022/01/06 05:21:51;;;;;;;89.90;40.17;;;;;;;5.81;88.03;96547.25;4918224;29;20036;-79
2022/01/06 05:24:17;;;;;;;76.18;33.42;;;;;;;5.67;87.31;96547.19;4899761;29;20036;-88
2022/01/06 05:26:43;;;;;;;63.53;28.15;;;;;;;5.73;87.71;96567.19;4901152;29;20063;-88
2022/01/06 05:29:10;;;;;;;60.88;27.58;;;;;;;5.48;89.69;96570.41;4893712;29;20126;-87
2022/01/06 05:31:42;;;;;;;57.72;24.20;;;;;;;5.16;90.49;96515.75;4914593;29;20124;-87
2022/01/06 05:34:07;;;;;;;46.05;21.27;;;;;;;5.12;91.70;96506.25;4901204;29;20484;-87
2022/01/06 05:36:33;;;;;;;50.40;22.15;;;;;;;5.20;90.63;96541.97;4907769;29;20043;-85
2022/01/06 05:38:59;;;;;;;53.85;22.27;;;;;;;5.29;92.07;96561.81;4915713;29;20051;-86
2022/01/06 05:41:33;;;;;;;87.70;38.58;;;;;;;5.05;92.42;96505.75;4922614;29;20044;-85
2022/01/06 05:43:59;;;;;;;60.28;29.00;;;;;;;5.37;91.46;96551.63;4894262;29;20059;-84
2022/01/06 05:46:26;;;;;;;72.03;36.58;;;;;;;5.54;91.44;96588.63;4905551;29;20079;-85
2022/01/06 05:48:55;;;;;;;68.88;33.90;;;;;;;5.55;91.73;96574.44;4910326;29;20095;-85
2022/01/06 05:51:24;;;;;;;69.38;34.08;;;;;;;5.25;91.16;96529.34;4907760;29;20560;-82
2022/01/06 05:53:50;;;;;;;69.47;34.65;;;;;;;5.32;91.58;96535.16;4906062;29;20040;-86
2022/01/06 05:56:16;;;;;;;76.22;33.65;;;;;;;5.52;91.93;96563.13;4892914;29;20394;-83
2022/01/06 05:58:41;;;;;;;48.55;23.00;;;;;;;5.57;90.11;96588.44;4898067;29;20047;-86
2022/01/06 06:01:07;;;;;;;32.78;17.10;;;;;;;5.42;89.55;96565.47;4916006;29;20130;-87
2022/01/06 06:03:34;;;;;;;40.42;16.90;;;;;;;5.44;89.96;96582.97;4912018;29;20044;-86
2022/01/06 06:06:00;;;;;;;38.92;18.15;;;;;;;5.55;89.74;96577.09;4907311;29;20135;-87
2022/01/06 06:08:26;;;;;;;37.70;17.98;;;;;;;5.48;89.46;96583.66;4916971;29;20055;-87
2022/01/06 06:10:51;;;;;;;45.63;21.02;;;;;;;5.34;90.41;96587.13;4911707;29;20047;-87
2022/01/06 06:13:17;;;;;;;62.83;28.23;;;;;;;5.36;90.92;96598.50;4910631;29;20039;-85
2022/01/06 06:15:42;;;;;;;49.85;21.98;;;;;;;5.39;91.75;96603.63;4906664;29;20186;-87
2022/01/06 06:18:12;;;;;;;56.58;23.30;;;;;;;5.43;91.61;96601.66;4906958;29;20036;-86
2022/01/06 06:20:38;;;;;;;62.65;27.08;;;;;;;5.51;91.88;96603.88;4913070;29;20032;-86
2022/01/06 06:23:04;;;;;;;63.92;29.90;;;;;;;5.53;92.15;96608.16;4915555;29;20036;-86
2022/01/06 06:25:30;;;;;;;63.67;26.13;;;;;;;5.42;92.02;96610.53;4890077;29;20115;-85
2022/01/06 06:27:56;;;;;;;74.40;38.10;;;;;;;5.44;92.47;96619.28;4905144;29;20040;-86
2022/01/06 06:30:21;;;;;;;107.18;52.38;;;;;;;5.50;91.84;96618.94;4890594;29;20547;-87
2022/01/06 06:32:49;;;;;;;97.55;45.17;;;;;;;5.59;91.64;96622.84;4902835;29;20056;-86
2022/01/06 06:35:15;;;;;;;91.95;46.40;;;;;;;5.56;93.46;96618.59;4894386;29;20047;-86
2022/01/06 06:37:41;;;;;;;113.75;53.03;;;;;;;5.61;92.08;96626.25;4909252;29;20043;-87
2022/01/06 06:40:07;;;;;;;114.90;51.20;;;;;;;5.68;91.05;96639.09;4908549;29;20040;-87
2022/01/06 06:42:32;;;;;;;131.95;59.58;;;;;;;5.68;91.28;96628.50;4924217;29;20064;-87
2022/01/06 06:44:58;;;;;;;96.82;39.85;;;;;;;5.69;90.12;96634.66;4923461;29;20497;-86
2022/01/06 06:47:25;;;;;;;101.55;45.88;;;;;;;5.81;89.40;96618.88;4924154;29;20028;-86
2022/01/06 06:49:50;;;;;;;132.35;62.40;;;;;;;6.76;82.68;96636.19;4916986;29;20076;-86
2022/01/06 06:52:16;;;;;;;116.32;52.30;;;;;;;8.21;75.59;96636.50;4889543;29;20036;-85
2022/01/06 06:54:42;;;;;;;107.03;53.10;;;;;;;9.78;67.56;96629.81;4889052;29;20036;-87
2022/01/06 06:57:08;;;;;;;131.25;57.83;;;;;;;11.27;60.48;96630.75;4889075;29;20032;-87
2022/01/06 06:59:37;;;;;;;123.95;54.28;;;;;;;12.54;55.47;96626.56;4905459;29;20567;-86
2022/01/06 07:02:03;;;;;;;116.88;55.40;;;;;;;13.49;52.16;96608.34;4907176;29;20036;-77
2022/01/06 07:04:29;;;;;;;106.65;53.95;;;;;;;14.06;49.82;96613.03;4939605;29;20077;-89
2022/01/06 07:06:54;;;;;;;125.93;61.25;;;;;;;14.08;48.92;96602.13;4899000;29;20067;-85
2022/01/06 07:09:20;;;;;;;153.30;69.50;;;;;;;14.34;47.85;96610.53;4908308;29;20440;-86
2022/01/06 07:11:49;;;;;;;138.60;66.63;;;;;;;15.03;46.56;96624.66;4888062;29;20122;-84
2022/01/06 07:14:14;;;;;;;154.82;69.57;;;;;;;15.53;45.57;96627.94;4912446;29;20058;-79
2022/01/06 07:16:40;;;;;;;133.02;63.60;;;;;;;15.53;45.32;96634.19;4899495;29;20047;-77
2022/01/06 07:19:06;;;;;;;118.28;62.88;;;;;;;15.93;44.71;96638.41;4892365;29;20074;-78
2022/01/06 07:21:34;;;;;;;136.70;66.85;;;;;;;16.53;43.45;96635.00;4905640;29;20055;-79
2022/01/06 07:24:00;;;;;;;135.93;67.05;;;;;;;17.07;41.70;96641.25;4908951;29;20039;-78
2022/01/06 07:26:26;;;;;;;146.43;71.85;;;;;;;17.53;40.85;96626.53;4899429;29;20032;-78
2022/01/06 07:28:51;;;;;;;149.75;73.90;;;;;;;17.72;40.36;96618.19;4906033;29;20500;-78
2022/01/06 07:31:17;;;;;;;183.35;96.10;;;;;;;17.48;40.47;96624.28;4899836;29;20031;-79
2022/01/06 07:33:42;;;;;;;152.30;79.43;;;;;;;17.64;40.03;96621.72;4891427;29;20052;-78
2022/01/06 07:36:08;;;;;;;163.80;84.50;;;;;;;18.52;39.06;96628.47;4899558;29;20048;-78
2022/01/06 07:38:34;;;;;;;225.48;114.72;;;;;;;19.46;37.08;96618.88;4884878;29;20433;-78
2022/01/06 07:41:00;;;;;;;166.38;93.40;;;;;;;19.37;36.67;96603.59;4894665;29;20050;-78
2022/01/06 07:43:25;;;;;;;180.98;93.47;;;;;;;19.87;36.27;96608.72;4904458;29;20048;-80
2022/01/06 07:45:51;;;;;;;121.00;65.57;;;;;;;20.41;35.54;96614.28;4903871;29;20391;-79
2022/01/06 07:48:19;;;;;;;139.75;64.05;;;;;;;20.97;34.93;96610.31;4900603;29;20032;-79
2022/01/06 07:50:46;;;;;;;125.57;68.28;;;;;;;21.77;33.75;96616.03;4892321;29;20531;-79
2022/01/06 07:53:12;;;;;;;131.80;68.53;;;;;;;22.49;32.30;96608.84;4906652;29;20040;-78
2022/01/06 07:55:38;;;;;;;106.05;47.15;;;;;;;22.16;33.15;96619.34;4895780;29;20443;-79
2022/01/06 07:58:04;;;;;;;91.65;47.70;;;;;;;22.34;32.42;96603.44;4894303;29;20119;-78
2022/01/06 08:00:30;;;;;;;60.40;31.13;;;;;;;20.75;34.98;96616.59;4911350;29;20560;-78
2022/01/06 08:02:56;;;;;;;34.35;16.52;;;;;;;20.58;34.76;96618.56;4889464;29;20112;-78
2022/01/06 08:05:25;;;;;;;35.72;14.07;;;;;;;19.91;35.53;96629.06;4895817;29;20034;-79
2022/01/06 08:07:50;;;;;;;23.98;13.02;;;;;;;19.44;35.99;96634.44;4885313;29;20043;-79
2022/01/06 08:10:16;;;;;;;30.77;14.27;;;;;;;19.85;35.93;96639.78;4909379;29;20111;-80
2022/01/06 08:12:42;;;;;;;26.08;11.55;;;;;;;19.74;36.26;96638.31;4885138;29;20059;-79
2022/01/06 08:15:08;;;;;;;33.95;10.63;;;;;;;19.42;36.02;96633.78;4906735;29;20497;-79
2022/01/06 08:17:34;;;;;;;25.02;10.73;;;;;;;19.05;36.85;96641.56;4891106;29;20043;-80
2022/01/06 08:19:59;;;;;;;27.95;11.65;;;;;;;19.12;37.54;96649.88;4910001;29;20036;-79
2022/01/06 08:22:25;;;;;;;24.13;11.18;;;;;;;19.85;36.05;96650.63;4899285;29;20028;-78
2022/01/06 08:24:52;;;;;;;40.05;12.82;;;;;;;19.94;36.02;96649.59;4900141;29;20508;-79
2022/01/06 08:27:19;;;;;;;22.90;10.75;;;;;;;19.80;35.77;96648.47;4894176;29;20036;-80
2022/01/06 08:29:44;;;;;;;16.92;9.18;;;;;;;19.85;35.65;96639.78;4889687;29;20508;-80
2022/01/06 08:32:10;;;;;;;42.70;15.30;;;;;;;20.28;35.70;96647.44;4886899;29;20059;-79
2022/01/06 08:34:36;;;;;;;20.35;9.23;;;;;;;20.59;34.58;96627.56;4897873;29;20044;-79
2022/01/06 08:37:02;;;;;;;29.45;16.33;;;;;;;20.64;34.77;96642.31;4890209;29;20040;-79
2022/01/06 08:39:28;;;;;;;19.35;10.95;;;;;;;20.95;33.82;96644.97;4890775;29;20489;-79
2022/01/06 08:41:56;;;;;;;21.83;10.82;;;;;;;21.53;32.46;96623.41;4891487;29;20039;-80
2022/01/06 08:44:21;;;;;;;41.90;13.65;;;;;;;22.50;32.53;96640.53;4907738;29;20134;-79
2022/01/06 08:46:48;;;;;;;22.10;10.07;;;;;;;23.27;30.40;96633.41;4897487;29;20123;-81
2022/01/06 08:49:17;;;;;;;22.95;10.38;;;;;;;23.58;29.81;96631.19;4896140;29;20087;-81
2022/01/06 08:51:43;;;;;;;23.58;11.57;;;;;;;24.08;29.10;96624.59;4895754;29;20040;-79
2022/01/06 08:54:09;;;;;;;16.98;10.10;;;;;;;23.66;29.29;96624.72;4904825;29;20098;-79
2022/01/06 08:56:35;;;;;;;17.38;9.60;;;;;;;22.98;30.03;96619.94;4895702;29;20055;-78
2022/01/06 08:59:02;;;;;;;17.73;9.48;;;;;;;22.28;30.83;96615.09;4911194;29;20080;-79
2022/01/06 09:01:28;;;;;;;21.58;9.77;;;;;;;22.23;31.09;96616.72;4910231;29;20540;-79
2022/01/06 09:03:54;;;;;;;20.55;9.80;;;;;;;22.37;30.82;96619.41;4898603;29;20064;-79
2022/01/06 09:06:22;;;;;;;21.52;11.18;;;;;;;23.19;29.96;96630.81;4899955;29;20119;-80
2022/01/06 09:08:48;;;;;;;14.35;8.90;;;;;;;23.41;29.79;96628.97;4906679;29;20059;-80
2022/01/06 09:11:15;;;;;;;22.75;9.98;;;;;;;24.02;29.16;96619.09;4914348;29;20043;-79
2022/01/06 09:13:41;;;;;;;31.88;9.68;;;;;;;24.40;28.45;96614.03;4906951;29;20346;-79
2022/01/06 09:16:08;;;;;;;17.10;8.27;;;;;;;25.07;27.57;96608.63;4907461;29;20063;-80
2022/01/06 09:18:37;;;;;;;13.88;7.75;;;;;;;25.51;27.10;96610.75;4909369;29;20032;-79
2022/01/06 09:21:04;;;;;;;19.08;8.40;;;;;;;24.37;27.89;96604.38;4882474;29;20051;-80
2022/01/06 09:23:30;;;;;;;12.13;7.63;;;;;;;24.44;28.18;96615.34;4903372;29;20035;-81
2022/01/06 09:25:59;;;;;;;18.23;7.20;;;;;;;24.53;28.06;96620.41;4923977;29;20036;-82
2022/01/06 09:28:24;;;;;;;14.13;7.53;;;;;;;25.50;27.33;96609.91;4893172;29;20123;-81
2022/01/06 09:30:51;;;;;;;12.60;6.32;;;;;;;25.16;27.21;96605.44;4900232;29;20044;-81
2022/01/06 09:33:18;;;;;;;13.75;8.25;;;;;;;25.33;27.24;96603.16;4895355;29;20048;-81
2022/01/06 09:35:45;;;;;;;20.70;13.30;;;;;;;25.60;26.63;96590.31;4889249;29;20060;-81
2022/01/06 09:38:13;;;;;;;26.35;12.85;;;;;;;26.01;26.21;96585.41;4907892;29;20511;-81
2022/01/06 09:40:41;;;;;;;10.90;7.40;;;;;;;26.64;25.82;96593.88;4896262;29;20036;-81
2022/01/06 09:43:06;;;;;;;14.88;7.88;;;;;;;26.44;25.65;96584.88;4933233;29;20120;-82
2022/01/06 09:45:34;;;;;;;22.27;9.82;;;;;;;26.24;25.93;96585.78;4899317;29;20055;-81
2022/01/06 09:48:00;;;;;;;11.48;5.40;;;;;;;25.26;26.93;96580.38;4917813;29;20428;-79
2022/01/06 09:50:26;;;;;;;16.17;9.05;;;;;;;25.43;27.22;96581.69;4907152;29;20039;-81
2022/01/06 09:52:54;;;;;;;28.58;15.35;;;;;;;25.79;27.06;96586.72;4914739;29;20272;-80
2022/01/06 09:55:21;;;;;;;19.00;6.70;;;;;;;26.06;26.60;96573.78;4890023;29;20127;-81
2022/01/06 09:57:59;;;;;;;8.68;5.25;;;;;;;26.45;25.43;96578.34;4906555;29;20435;-80
2022/01/06 10:00:26;;;;;;;10.85;7.78;;;;;;;27.28;25.07;96572.56;4900730;29;20040;-80
2022/01/06 10:02:57;;;;;;;10.30;6.18;;;;;;;27.37;24.27;96560.25;4900495;29;20048;-80
2022/01/06 10:05:24;;;;;;;9.67;6.03;;;;;;;27.70;23.90;96548.13;4911979;29;20381;-80
2022/01/06 10:07:50;;;;;;;8.45;6.22;;;;;;;27.87;23.80;96546.50;4898903;29;20039;-80
2022/01/06 10:10:16;;;;;;;7.22;4.50;;;;;;;28.06;23.49;96547.34;4887066;29;20511;-80
2022/01/06 10:12:42;;;;;;;10.73;4.20;;;;;;;27.83;23.73;96543.34;4911532;29;20063;-81
2022/01/06 10:15:22;;;;;;;9.65;5.10;;;;;;;28.56;23.25;96523.22;4888987;29;20587;-81
2022/01/06 10:17:49;;;;;;;9.57;5.20;;;;;;;28.77;23.13;96550.28;4891502;29;20035;-80
2022/01/06 10:20:20;;;;;;;10.65;5.10;;;;;;;28.58;23.18;96532.94;4888398;29;20459;-80
2022/01/06 10:22:56;;;;;;;;;;;;;;;29.10;22.59;96544.31;4896327;29;20071;-81
2022/01/06 10:25:24;;;;;;;12.93;6.18;;;;;;;28.52;23.22;96531.94;4904892;29;19911;-81
2022/01/06 10:27:52;;;;;;;14.68;5.85;;;;;;;28.64;23.45;96543.00;4914340;29;20047;-80
2022/01/06 10:30:18;;;;;;;7.60;4.75;;;;;;;27.80;23.56;96537.47;4913823;29;20044;-81
2022/01/06 10:32:44;;;;;;;13.73;5.63;;;;;;;28.55;23.14;96535.34;4887418;29;20067;-81
2022/01/06 10:35:14;;;;;;;9.98;5.28;;;;;;;28.25;23.12;96519.63;4893756;29;20126;-80
2022/01/06 10:37:42;;;;;;;18.10;5.80;;;;;;;29.08;22.74;96540.94;4898334;29;20044;-81
2022/01/06 10:40:16;;;;;;;27.30;11.13;;;;;;;29.08;22.85;96533.50;4907427;29;20038;-80
2022/01/06 10:42:46;;;;;;;28.95;11.57;;;;;;;28.17;23.64;96538.34;4908949;29;20067;-80
2022/01/06 10:45:17;;;;;;;39.70;16.60;;;;;;;28.75;22.77;96533.16;4910918;29;20499;-80
2022/01/06 10:47:46;;;;;;;13.73;8.10;;;;;;;28.36;22.74;96523.50;4905114;29;20040;-80
2022/01/06 10:50:16;;;;;;;30.30;10.82;;;;;;;28.13;23.34;96531.63;4900730;29;20039;-79
2022/01/06 10:52:44;;;;;;;16.27;9.52;;;;;;;29.11;22.13;96516.50;4912106;29;20485;-80
2022/01/06 10:55:15;;;;;;;19.40;9.98;;;;;;;30.92;20.55;96522.56;4908357;29;20039;-81
2022/01/06 10:58:09;;;;;;;22.60;7.53;;;;;;;31.87;19.58;96519.00;4890892;29;20580;-80
2022/01/06 11:00:48;;;;;;;9.05;4.22;;;;;;;31.23;19.52;96518.47;4912603;29;20046;-79
2022/01/06 11:03:15;;;;;;;14.13;4.90;;;;;;;32.30;18.24;96508.00;4911855;29;20051;-79
2022/01/06 11:05:45;;;;;;;11.25;4.93;;;;;;;32.55;18.24;96502.75;4923721;29;20110;-80
2022/01/06 11:08:13;;;;;;;12.27;3.85;;;;;;;32.09;18.27;96486.66;4900055;29;20126;-80
2022/01/06 11:10:47;;;;;;;7.85;4.03;;;;;;;32.46;17.87;96496.00;4904621;29;20036;-81
2022/01/06 11:13:14;;;;;;;7.75;3.80;;;;;;;30.17;19.37;96485.16;4910841;29;20039;-81
2022/01/06 11:15:40;;;;;;;13.48;5.45;;;;;;;29.11;20.35;96491.72;4893383;29;20043;-82
2022/01/06 11:18:05;;;;;;;9.82;5.07;;;;;;;29.25;20.63;96487.72;4917953;29;20055;-80
2022/01/06 11:20:31;;;;;;;8.95;5.30;;;;;;;30.21;20.36;96503.72;4909186;29;20492;-80
2022/01/06 11:22:59;;;;;;;16.88;8.27;;;;;;;30.97;19.51;96492.31;4905125;29;20793;-81
2022/01/06 11:26:26;;;;;;;13.85;5.75;;;;;;;30.58;19.91;96494.03;4899227;29;20032;-81
2022/01/06 11:29:00;;;;;;;14.10;4.65;;;;;;;30.07;20.27;96491.28;4864698;29;20163;-81
2022/01/06 11:31:28;;;;;;;14.90;8.45;;;;;;;29.76;20.42;96488.91;4922013;29;20431;-80
2022/01/06 11:33:56;;;;;;;7.95;3.80;;;;;;;29.13;20.51;96478.56;4901236;29;20058;-80
2022/01/06 11:36:32;;;;;;;8.45;4.60;;;;;;;30.15;20.03;96499.16;4899650;29;20042;-81
2022/01/06 11:39:05;;;;;;;9.68;3.97;;;;;;;30.34;19.56;96488.81;4913129;29;20255;-81
2022/01/06 11:41:39;;;;;;;11.40;4.63;;;;;;;30.46;19.70;96484.09;4900056;29;20070;-80
2022/01/06 11:44:26;;;;;;;15.07;5.90;;;;;;;30.24;19.85;96489.44;4912230;29;20155;-80
2022/01/06 11:46:56;;;;;;;7.60;4.10;;;;;;;29.91;19.41;96470.81;4903596;29;20032;-81
2022/01/06 11:49:36;;;;;;;12.30;5.72;;;;;;;30.14;19.56;96475.44;4893829;29;20040;-80
2022/01/06 11:52:07;;;;;;;9.18;4.78;;;;;;;30.16;19.60;96472.41;4917269;29;20038;-81
2022/01/06 11:54:33;;;;;;;11.70;5.07;;;;;;;29.25;19.65;96465.66;4917660;29;20123;-81
2022/01/06 11:56:59;;;;;;;16.60;5.03;;;;;;;28.90;20.70;96478.50;4905286;29;20043;-80
2022/01/06 11:59:32;;;;;;;12.35;4.10;;;;;;;28.00;21.31;96472.91;4899039;29;20032;-80
2022/01/06 12:01:58;;;;;;;7.43;4.15;;;;;;;28.45;20.87;96486.34;4907728;29;20036;-80
2022/01/06 12:04:25;;;;;;;20.98;4.65;;;;;;;27.55;21.09;96477.03;4898739;29;20046;-81
2022/01/06 12:07:02;;;;;;;8.75;4.63;;;;;;;27.88;21.37;96476.66;4915206;29;20471;-82
2022/01/06 12:09:28;;;;;;;12.02;4.97;;;;;;;28.04;21.16;96483.47;4889620;29;20042;-81
2022/01/06 12:12:05;;;;;;;8.65;3.88;;;;;;;28.60;20.16;96480.41;4917036;29;20040;-81
2022/01/06 12:14:31;;;;;;;8.23;4.53;;;;;;;28.11;20.97;96474.09;4915254;29;20036;-81
2022/01/06 12:17:10;;;;;;;10.82;5.80;;;;;;;28.60;20.71;96495.03;4897900;29;20473;-82
2022/01/06 12:19:36;;;;;;;7.82;3.80;;;;;;;27.56;21.29;96483.38;4912627;29;20483;-81
2022/01/06 12:22:04;;;;;;;10.55;5.65;;;;;;;27.74;21.98;96488.91;4890316;29;20124;-81
2022/01/06 12:24:30;;;;;;;6.88;4.72;;;;;;;28.26;21.15;96471.78;4913859;29;20087;-81
2022/01/06 12:26:55;;;;;;;7.32;3.83;;;;;;;27.86;20.80;96478.81;4916675;29;20415;-80
2022/01/06 12:29:25;;;;;;;14.77;4.40;;;;;;;27.91;20.95;96473.47;4917297;29;20035;-80
2022/01/06 12:31:52;;;;;;;12.55;4.20;;;;;;;28.22;20.74;96476.06;4906866;29;20472;-81
2022/01/06 12:34:20;;;;;;;9.82;4.32;;;;;;;29.35;20.31;96474.16;4882741;29;20130;-80
2022/01/06 12:36:46;;;;;;;14.00;3.38;;;;;;;29.05;20.33;96476.97;4905391;29;20492;-80
2022/01/06 12:39:15;;;;;;;10.35;3.40;;;;;;;27.89;21.11;96470.09;4915783;29;20411;-80
2022/01/06 12:41:41;;;;;;;10.68;3.90;;;;;;;28.05;21.09;96458.53;4923348;29;20091;-81
2022/01/06 12:44:08;;;;;;;10.68;4.03;;;;;;;27.54;21.59;96461.63;4898832;29;20497;-81
2022/01/06 12:46:37;;;;;;;13.13;4.32;;;;;;;27.56;22.04;96470.50;4916309;29;20059;-80
2022/01/06 12:49:07;;;;;;;9.95;4.57;;;;;;;27.04;22.14;96471.78;4900059;29;20086;-79
2022/01/06 12:51:34;;;;;;;10.85;4.20;;;;;;;27.37;22.03;96472.34;4917404;29;20040;-79
2022/01/06 12:54:01;;;;;;;7.22;3.30;;;;;;;27.47;21.59;96479.25;4900893;29;20071;-81
2022/01/06 12:56:34;;;;;;;8.88;3.88;;;;;;;27.43;22.11;96487.94;4916813;29;20094;-81
2022/01/06 12:59:02;;;;;;;8.43;3.95;;;;;;;27.80;21.82;96483.31;4904942;29;20036;-81
2022/01/06 13:01:29;;;;;;;14.27;4.80;;;;;;;28.53;20.93;96475.84;4898630;29;20043;-81
2022/01/06 13:03:55;;;;;;;10.93;6.63;;;;;;;29.41;20.66;96475.97;4902544;29;20531;-81
2022/01/06 13:06:25;;;;;;;14.60;5.72;;;;;;;30.39;20.11;96484.28;4920982;29;20031;-81
2022/01/06 13:08:56;;;;;;;10.88;4.40;;;;;;;30.73;19.27;96487.97;4888233;29;20048;-80
2022/01/06 13:11:30;;;;;;;11.52;4.72;;;;;;;29.77;20.26;96491.44;4887508;29;20481;-81
2022/01/06 13:14:01;;;;;;;12.57;4.82;;;;;;;29.32;20.41;96476.53;4886459;29;20043;-81
2022/01/06 13:16:30;;;;;;;30.75;5.72;;;;;;;29.27;20.70;96484.69;4925231;29;20075;-80
2022/01/06 13:19:04;;;;;;;10.77;4.43;;;;;;;28.72;20.79;96489.59;4901114;29;20048;-80
2022/01/06 13:21:31;;;;;;;21.08;5.00;;;;;;;29.25;20.82;96495.13;4901664;29;20044;-81
2022/01/06 13:24:14;;;;;;;20.60;3.88;;;;;;;29.42;20.97;96501.59;4916964;29;20123;-82
2022/01/06 13:26:49;;;;;;;11.32;4.88;;;;;;;29.81;20.71;96502.81;4924494;29;20024;-81
2022/01/06 13:29:25;;;;;;;12.38;5.15;;;;;;;29.54;20.56;96494.19;4928092;29;20448;-80
2022/01/06 13:32:05;;;;;;;17.85;5.80;;;;;;;28.76;21.05;96504.56;4903741;29;20047;-81
2022/01/06 13:34:32;;;;;;;14.52;5.80;;;;;;;27.78;22.05;96510.19;4910616;29;20066;-81
2022/01/06 13:37:08;;;;;;;13.98;6.50;;;;;;;26.34;23.64;96517.59;4918210;29;20047;-80
2022/01/06 13:39:58;;;;;;;13.00;5.00;;;;;;;25.46;24.23;96517.41;4929627;29;20183;-81
2022/01/06 13:42:29;;;;;;;12.77;4.82;;;;;;;24.74;24.86;96518.22;4913733;29;20127;-80
2022/01/06 13:45:02;;;;;;;11.52;5.38;;;;;;;24.14;25.54;96525.44;4935581;29;20044;-81
2022/01/06 13:47:33;;;;;;;19.45;6.05;;;;;;;24.43;25.98;96520.66;4908462;29;20044;-80
2022/01/06 13:52:50;;;;;;;9.07;4.88;;;;;;;24.47;25.29;96520.06;4911829;29;20567;-80
2022/01/06 13:55:16;;;;;;;11.45;5.78;;;;;;;24.08;26.17;96526.22;4886703;29;20032;-79
2022/01/06 13:57:42;;;;;;;14.27;6.07;;;;;;;23.64;26.41;96532.09;4903888;29;20041;-80
2022/01/06 14:00:08;;;;;;;25.23;8.20;;;;;;;23.59;27.28;96547.41;4901736;29;20464;-79
2022/01/06 14:02:34;;;;;;;18.48;9.18;;;;;;;22.09;32.89;96567.50;4897224;29;20492;-79
2022/01/06 14:05:07;;;;;;;18.95;9.30;;;;;;;20.71;35.97;96594.38;4903715;29;20171;-80
2022/01/06 14:07:32;;;;;;;25.02;11.70;;;;;;;20.37;37.25;96589.34;4892381;29;20039;-79
2022/01/06 14:09:58;;;;;;;20.23;11.48;;;;;;;19.76;39.07;96614.53;4900016;29;20040;-79
2022/01/06 14:12:23;;;;;;;18.67;10.30;;;;;;;19.43;40.52;96645.47;4900577;29;20048;-79
2022/01/06 14:14:49;;;;;;;29.50;13.38;;;;;;;18.62;42.36;96656.28;4898942;29;20035;-79
2022/01/06 14:17:15;;;;;;;23.83;11.43;;;;;;;18.29;43.32;96649.91;4903904;29;20047;-80
2022/01/06 14:19:41;;;;;;;33.03;11.73;;;;;;;17.62;45.03;96663.47;4901463;29;20044;-80
2022/01/06 14:22:06;;;;;;;22.67;12.52;;;;;;;16.81;47.53;96689.81;4893795;29;20530;-80
2022/01/06 14:24:35;;;;;;;26.88;13.70;;;;;;;16.38;48.82;96716.66;4903928;29;20130;-78
2022/01/06 14:27:02;;;;;;;19.35;11.70;;;;;;;15.42;51.55;96731.34;4919664;29;20031;-79
2022/01/06 14:29:29;;;;;;;25.63;12.15;;;;;;;15.04;53.09;96745.69;4918796;29;20039;-78
2022/01/06 14:31:55;;;;;;;21.98;11.35;;;;;;;14.64;55.00;96761.97;4900354;29;20040;-79
2022/01/06 14:34:21;;;;;;;29.08;11.35;;;;;;;14.49;56.29;96781.34;4900383;29;20515;-78
2022/01/06 14:36:46;;;;;;;22.70;11.63;;;;;;;14.08;57.88;96790.38;4900070;29;20107;-79
2022/01/06 14:39:12;;;;;;;26.77;12.55;;;;;;;13.70;59.49;96784.78;4905717;29;20106;-80
2022/01/06 14:41:38;;;;;;;26.65;13.55;;;;;;;13.54;60.50;96787.94;4901990;29;20492;-80
2022/01/06 14:44:03;;;;;;;28.52;15.27;;;;;;;13.39;61.84;96800.00;4912345;29;20533;-79
2022/01/06 14:46:29;;;;;;;33.47;17.02;;;;;;;12.98;63.33;96795.44;4911517;29;20063;-79
2022/01/06 14:48:55;;;;;;;38.03;16.33;;;;;;;12.64;65.21;96796.53;4911701;29;20040;-79
2022/01/06 14:51:21;;;;;;;25.83;13.80;;;;;;;12.65;65.88;96806.25;4895795;29;20044;-81
2022/01/06 14:53:47;;;;;;;28.13;12.88;;;;;;;12.52;65.85;96801.91;4909435;29;20493;-80
2022/01/06 14:56:13;;;;;;;29.83;15.70;;;;;;;12.32;67.02;96804.50;4918539;29;20484;-79
2022/01/06 14:58:39;;;;;;;35.88;19.58;;;;;;;11.92;68.86;96806.84;4902428;29;20068;-79
2022/01/06 15:01:07;;;;;;;34.78;19.15;;;;;;;11.97;69.33;96827.94;4883798;29;20036;-79
2022/01/06 15:03:33;;;;;;;45.75;21.60;;;;;;;11.74;70.39;96832.41;4899950;29;20032;-80
2022/01/06 15:05:59;;;;;;;32.03;17.02;;;;;;;11.64;71.25;96866.19;4899395;29;20030;-79
2022/01/06 15:08:25;;;;;;;30.73;16.80;;;;;;;11.36;72.64;96851.38;4903520;29;20024;-80
2022/01/06 15:10:51;;;;;;;35.20;19.13;;;;;;;11.13;74.55;96863.84;4895760;29;20043;-79
2022/01/06 15:13:19;;;;;;;37.38;19.23;;;;;;;11.03;75.56;96872.66;4912700;29;20043;-79
2022/01/06 15:15:48;;;;;;;32.63;16.85;;;;;;;11.06;75.96;96878.66;4914824;29;20424;-79
2022/01/06 15:18:14;;;;;;;31.52;17.55;;;;;;;10.86;76.95;96887.28;4917599;29;20042;-81
2022/01/06 15:20:39;;;;;;;33.20;18.25;;;;;;;10.71;78.01;96896.44;4904002;29;20036;-79
2022/01/06 15:23:05;;;;;;;41.95;20.33;;;;;;;10.59;78.58;96900.84;4918677;29;20032;-79
2022/01/06 15:25:31;;;;;;;44.28;21.92;;;;;;;10.64;78.61;96911.25;4902724;29;20640;-81
2022/01/06 15:27:57;;;;;;;41.72;22.27;;;;;;;10.36;79.65;96915.03;4898398;29;20397;-80
2022/01/06 15:30:23;;;;;;;44.75;22.80;;;;;;;10.22;80.97;96926.69;4904655;29;20040;-80
2022/01/06 15:32:48;;;;;;;38.83;21.52;;;;;;;10.05;82.33;96936.81;4883519;29;20558;-80
2022/01/06 15:35:14;;;;;;;41.35;21.58;;;;;;;10.01;82.55;96948.69;4903644;29;20028;-79
2022/01/06 15:37:40;;;;;;;41.30;23.77;;;;;;;10.03;82.69;96954.78;4907333;29;20068;-79
2022/01/06 15:40:07;;;;;;;42.97;21.05;;;;;;;9.85;83.59;96962.22;4907160;29;20040;-79
2022/01/06 15:42:33;;;;;;;45.60;23.33;;;;;;;9.81;84.69;96969.59;4901846;29;20047;-82
2022/01/06 15:44:58;;;;;;;40.13;20.42;;;;;;;9.83;84.00;96964.16;4907041;29;20052;-78
2022/01/06 15:47:24;;;;;;;37.05;19.90;;;;;;;9.56;85.10;96977.56;4907764;29;20111;-79
2022/01/06 15:49:52;;;;;;;53.03;23.88;;;;;;;9.41;86.96;96983.06;4901360;29;20135;-85
2022/01/06 15:52:18;;;;;;;46.38;24.17;;;;;;;9.39;87.84;96984.97;4912523;29;20032;-76
2022/01/06 15:54:43;;;;;;;36.17;19.70;;;;;;;9.30;87.96;96989.13;4907073;29;20098;-85
2022/01/06 15:57:09;;;;;;;43.25;21.88;;;;;;;9.19;88.86;96988.97;4886823;29;20051;-83
2022/01/06 15:59:42;;;;;;;51.22;26.58;;;;;;;9.16;88.88;96986.50;4908300;29;20040;-85